sensor_id;sensor_type;location;lat;lon;timestamp;P1;durP1;ratioP1;P2;durP2;ratioP2
50249;SDS011;36133;42.522;27.456;2023-04-03T00:01:27;14.68;;;9.20;;
50249;SDS011;36133;42.522;27.456;2023-04-03T00:03:53;12.73;;;8.88;;
50249;SDS011;36133;42.522;27.456;2023-04-03T00:06:19;13.60;;;8.63;;
50249;SDS011;36133;42.522;27.456;2023-04-03T00:08:45;13.32;;;9.20;;
50249;SDS011;36133;42.522;27.456;2023-04-03T00:11:11;14.32;;;8.65;;
50249;SDS011;36133;42.522;27.456;2023-04-03T00:13:37;11.90;;;7.80;;
50249;SDS011;36133;42.522;27.456;2023-04-03T00:16:04;13.70;;;8.63;;
50249;SDS011;36133;42.522;27.456;2023-04-03T00:18:30;13.63;;;8.73;;
50249;SDS011;36133;42.522;27.456;2023-04-03T00:20:57;10.25;;;7.53;;
50249;SDS011;36133;42.522;27.456;2023-04-03T00:23:22;11.82;;;7.78;;
50249;SDS011;36133;42.522;27.456;2023-04-03T00:25:49;12.82;;;8.48;;
50249;SDS011;36133;42.522;27.456;2023-04-03T00:28:15;13.18;;;8.85;;
50249;SDS011;36133;42.522;27.456;2023-04-03T00:30:41;13.85;;;8.48;;
50249;SDS011;36133;42.522;27.456;2023-04-03T00:33:07;9.55;;;7.95;;
50249;SDS011;36133;42.522;27.456;2023-04-03T00:35:33;11.98;;;8.55;;
50249;SDS011;36133;42.522;27.456;2023-04-03T00:38:00;15.77;;;8.60;;
50249;SDS011;36133;42.522;27.456;2023-04-03T00:40:26;12.70;;;8.38;;
50249;SDS011;36133;42.522;27.456;2023-04-03T00:42:56;12.02;;;7.25;;
50249;SDS011;36133;42.522;27.456;2023-04-03T00:45:25;12.77;;;7.38;;
50249;SDS011;36133;42.522;27.456;2023-04-03T00:48:01;10.38;;;7.28;;
50249;SDS011;36133;42.522;27.456;2023-04-03T00:50:30;19.55;;;8.10;;
50249;SDS011;36133;42.522;27.456;2023-04-03T00:52:59;13.68;;;8.55;;
50249;SDS011;36133;42.522;27.456;2023-04-03T00:55:25;19.98;;;10.95;;
50249;SDS011;36133;42.522;27.456;2023-04-03T00:57:51;18.67;;;10.30;;
50249;SDS011;36133;42.522;27.456;2023-04-03T01:00:19;17.75;;;11.00;;
50249;SDS011;36133;42.522;27.456;2023-04-03T01:02:45;18.67;;;11.73;;
50249;SDS011;36133;42.522;27.456;2023-04-03T01:05:11;20.17;;;13.75;;
50249;SDS011;36133;42.522;27.456;2023-04-03T01:07:38;29.67;;;18.35;;
50249;SDS011;36133;42.522;27.456;2023-04-03T01:10:08;26.77;;;16.48;;
50249;SDS011;36133;42.522;27.456;2023-04-03T01:12:37;24.90;;;15.48;;
50249;SDS011;36133;42.522;27.456;2023-04-03T01:15:09;18.58;;;12.90;;
50249;SDS011;36133;42.522;27.456;2023-04-03T01:17:41;23.63;;;14.45;;
50249;SDS011;36133;42.522;27.456;2023-04-03T01:25:08;16.90;;;9.68;;
50249;SDS011;36133;42.522;27.456;2023-04-03T01:27:33;13.20;;;8.38;;
50249;SDS011;36133;42.522;27.456;2023-04-03T01:29:59;12.15;;;7.20;;
50249;SDS011;36133;42.522;27.456;2023-04-03T01:32:25;11.65;;;6.20;;
50249;SDS011;36133;42.522;27.456;2023-04-03T01:34:50;10.70;;;6.38;;
50249;SDS011;36133;42.522;27.456;2023-04-03T01:37:16;11.13;;;6.25;;
50249;SDS011;36133;42.522;27.456;2023-04-03T01:39:41;8.77;;;6.32;;
50249;SDS011;36133;42.522;27.456;2023-04-03T01:42:07;11.48;;;6.82;;
50249;SDS011;36133;42.522;27.456;2023-04-03T01:44:33;11.45;;;7.10;;
50249;SDS011;36133;42.522;27.456;2023-04-03T01:46:58;10.18;;;6.65;;
50249;SDS011;36133;42.522;27.456;2023-04-03T01:49:24;15.10;;;8.25;;
50249;SDS011;36133;42.522;27.456;2023-04-03T01:51:50;25.85;;;10.63;;
50249;SDS011;36133;42.522;27.456;2023-04-03T01:54:15;16.10;;;8.90;;
50249;SDS011;36133;42.522;27.456;2023-04-03T01:56:41;14.85;;;8.85;;
50249;SDS011;36133;42.522;27.456;2023-04-03T01:59:06;10.32;;;7.35;;
50249;SDS011;36133;42.522;27.456;2023-04-03T02:01:32;15.82;;;7.07;;
50249;SDS011;36133;42.522;27.456;2023-04-03T02:03:58;12.40;;;7.70;;
50249;SDS011;36133;42.522;27.456;2023-04-03T02:06:23;12.82;;;7.95;;
50249;SDS011;36133;42.522;27.456;2023-04-03T02:08:51;12.63;;;8.43;;
50249;SDS011;36133;42.522;27.456;2023-04-03T02:11:16;25.67;;;16.27;;
50249;SDS011;36133;42.522;27.456;2023-04-03T02:13:42;27.15;;;17.08;;
50249;SDS011;36133;42.522;27.456;2023-04-03T02:16:09;35.33;;;19.23;;
50249;SDS011;36133;42.522;27.456;2023-04-03T02:18:36;32.00;;;14.65;;
50249;SDS011;36133;42.522;27.456;2023-04-03T02:21:02;26.85;;;14.20;;
50249;SDS011;36133;42.522;27.456;2023-04-03T02:23:27;24.02;;;12.45;;
50249;SDS011;36133;42.522;27.456;2023-04-03T02:25:53;16.65;;;9.27;;
50249;SDS011;36133;42.522;27.456;2023-04-03T02:28:27;23.15;;;12.77;;
50249;SDS011;36133;42.522;27.456;2023-04-03T02:30:52;22.95;;;10.63;;
50249;SDS011;36133;42.522;27.456;2023-04-03T02:33:18;16.17;;;9.00;;
50249;SDS011;36133;42.522;27.456;2023-04-03T02:35:43;14.88;;;8.60;;
50249;SDS011;36133;42.522;27.456;2023-04-03T02:38:11;11.57;;;7.93;;
50249;SDS011;36133;42.522;27.456;2023-04-03T02:40:37;15.75;;;8.68;;
50249;SDS011;36133;42.522;27.456;2023-04-03T02:43:05;16.10;;;10.05;;
50249;SDS011;36133;42.522;27.456;2023-04-03T02:45:31;14.10;;;8.88;;
50249;SDS011;36133;42.522;27.456;2023-04-03T02:47:56;14.48;;;9.35;;
50249;SDS011;36133;42.522;27.456;2023-04-03T02:50:22;13.52;;;9.38;;
50249;SDS011;36133;42.522;27.456;2023-04-03T02:52:48;14.88;;;10.65;;
50249;SDS011;36133;42.522;27.456;2023-04-03T02:55:14;15.57;;;11.30;;
50249;SDS011;36133;42.522;27.456;2023-04-03T02:57:40;18.67;;;11.38;;
50249;SDS011;36133;42.522;27.456;2023-04-03T03:00:06;15.77;;;11.50;;
50249;SDS011;36133;42.522;27.456;2023-04-03T03:02:35;16.65;;;11.57;;
50249;SDS011;36133;42.522;27.456;2023-04-03T03:05:00;18.13;;;11.98;;
50249;SDS011;36133;42.522;27.456;2023-04-03T03:07:26;17.77;;;12.30;;
50249;SDS011;36133;42.522;27.456;2023-04-03T03:09:51;22.00;;;12.48;;
50249;SDS011;36133;42.522;27.456;2023-04-03T03:12:17;19.60;;;12.57;;
50249;SDS011;36133;42.522;27.456;2023-04-03T03:14:46;19.13;;;12.95;;
50249;SDS011;36133;42.522;27.456;2023-04-03T03:17:13;16.58;;;11.95;;
50249;SDS011;36133;42.522;27.456;2023-04-03T03:19:38;14.25;;;10.75;;
50249;SDS011;36133;42.522;27.456;2023-04-03T03:22:04;12.52;;;8.77;;
50249;SDS011;36133;42.522;27.456;2023-04-03T03:24:30;12.40;;;9.45;;
50249;SDS011;36133;42.522;27.456;2023-04-03T03:26:55;17.58;;;10.43;;
50249;SDS011;36133;42.522;27.456;2023-04-03T03:29:21;17.58;;;10.95;;
50249;SDS011;36133;42.522;27.456;2023-04-03T03:31:47;18.83;;;11.30;;
50249;SDS011;36133;42.522;27.456;2023-04-03T03:34:12;16.02;;;10.52;;
50249;SDS011;36133;42.522;27.456;2023-04-03T03:36:38;14.13;;;9.38;;
50249;SDS011;36133;42.522;27.456;2023-04-03T03:39:04;13.07;;;9.30;;
50249;SDS011;36133;42.522;27.456;2023-04-03T03:41:30;18.65;;;9.95;;
50249;SDS011;36133;42.522;27.456;2023-04-03T03:43:56;15.95;;;9.25;;
50249;SDS011;36133;42.522;27.456;2023-04-03T03:46:21;13.55;;;9.27;;
50249;SDS011;36133;42.522;27.456;2023-04-03T03:48:47;13.80;;;9.32;;
50249;SDS011;36133;42.522;27.456;2023-04-03T03:51:13;12.43;;;8.45;;
50249;SDS011;36133;42.522;27.456;2023-04-03T03:53:39;13.45;;;8.40;;
50249;SDS011;36133;42.522;27.456;2023-04-03T03:56:05;13.43;;;8.02;;
50249;SDS011;36133;42.522;27.456;2023-04-03T03:58:30;21.85;;;8.65;;
50249;SDS011;36133;42.522;27.456;2023-04-03T04:01:00;21.48;;;10.25;;
50249;SDS011;36133;42.522;27.456;2023-04-03T04:03:27;32.88;;;16.13;;
50249;SDS011;36133;42.522;27.456;2023-04-03T04:05:52;35.78;;;17.45;;
50249;SDS011;36133;42.522;27.456;2023-04-03T04:08:18;37.33;;;17.08;;
50249;SDS011;36133;42.522;27.456;2023-04-03T04:10:43;40.33;;;19.45;;
50249;SDS011;36133;42.522;27.456;2023-04-03T04:13:09;42.30;;;22.92;;
50249;SDS011;36133;42.522;27.456;2023-04-03T04:15:34;35.28;;;18.52;;
50249;SDS011;36133;42.522;27.456;2023-04-03T04:18:00;21.15;;;12.57;;
50249;SDS011;36133;42.522;27.456;2023-04-03T04:20:25;25.58;;;17.08;;
50249;SDS011;36133;42.522;27.456;2023-04-03T04:22:51;27.35;;;16.70;;
50249;SDS011;36133;42.522;27.456;2023-04-03T04:25:17;26.98;;;18.02;;
50249;SDS011;36133;42.522;27.456;2023-04-03T04:27:42;21.08;;;12.90;;
50249;SDS011;36133;42.522;27.456;2023-04-03T04:30:08;20.42;;;11.73;;
50249;SDS011;36133;42.522;27.456;2023-04-03T04:32:36;21.23;;;11.90;;
50249;SDS011;36133;42.522;27.456;2023-04-03T04:35:02;25.27;;;13.60;;
50249;SDS011;36133;42.522;27.456;2023-04-03T04:37:29;25.23;;;14.95;;
50249;SDS011;36133;42.522;27.456;2023-04-03T04:39:55;36.50;;;12.75;;
50249;SDS011;36133;42.522;27.456;2023-04-03T04:42:21;24.17;;;12.68;;
50249;SDS011;36133;42.522;27.456;2023-04-03T04:44:46;21.50;;;12.15;;
50249;SDS011;36133;42.522;27.456;2023-04-03T04:47:12;20.27;;;12.48;;
50249;SDS011;36133;42.522;27.456;2023-04-03T04:49:37;24.48;;;11.18;;
50249;SDS011;36133;42.522;27.456;2023-04-03T04:52:03;18.65;;;11.18;;
50249;SDS011;36133;42.522;27.456;2023-04-03T04:54:29;21.50;;;10.85;;
50249;SDS011;36133;42.522;27.456;2023-04-03T04:56:54;15.77;;;9.80;;
50249;SDS011;36133;42.522;27.456;2023-04-03T04:59:20;14.48;;;9.30;;
50249;SDS011;36133;42.522;27.456;2023-04-03T05:01:46;15.93;;;9.70;;
50249;SDS011;36133;42.522;27.456;2023-04-03T05:04:11;26.45;;;10.00;;
50249;SDS011;36133;42.522;27.456;2023-04-03T05:06:40;14.98;;;9.02;;
50249;SDS011;36133;42.522;27.456;2023-04-03T05:09:06;17.50;;;9.45;;
50249;SDS011;36133;42.522;27.456;2023-04-03T05:11:31;18.25;;;9.57;;
50249;SDS011;36133;42.522;27.456;2023-04-03T05:13:57;16.38;;;8.52;;
50249;SDS011;36133;42.522;27.456;2023-04-03T05:16:23;20.15;;;10.25;;
50249;SDS011;36133;42.522;27.456;2023-04-03T05:18:49;15.77;;;10.05;;
50249;SDS011;36133;42.522;27.456;2023-04-03T05:21:14;24.80;;;11.75;;
50249;SDS011;36133;42.522;27.456;2023-04-03T05:23:40;19.70;;;9.35;;
50249;SDS011;36133;42.522;27.456;2023-04-03T05:26:08;20.88;;;9.52;;
50249;SDS011;36133;42.522;27.456;2023-04-03T05:28:34;22.20;;;9.18;;
50249;SDS011;36133;42.522;27.456;2023-04-03T05:31:00;16.98;;;8.90;;
50249;SDS011;36133;42.522;27.456;2023-04-03T05:33:28;21.13;;;8.38;;
50249;SDS011;36133;42.522;27.456;2023-04-03T05:36:01;11.80;;;7.00;;
50249;SDS011;36133;42.522;27.456;2023-04-03T05:38:28;11.52;;;6.88;;
50249;SDS011;36133;42.522;27.456;2023-04-03T05:40:54;11.82;;;6.72;;
50249;SDS011;36133;42.522;27.456;2023-04-03T05:43:20;11.23;;;7.68;;
50249;SDS011;36133;42.522;27.456;2023-04-03T05:45:47;10.43;;;6.22;;
50249;SDS011;36133;42.522;27.456;2023-04-03T05:48:12;10.75;;;6.03;;
50249;SDS011;36133;42.522;27.456;2023-04-03T05:50:38;15.57;;;5.63;;
50249;SDS011;36133;42.522;27.456;2023-04-03T05:53:06;9.23;;;5.32;;
50249;SDS011;36133;42.522;27.456;2023-04-03T05:55:37;7.30;;;4.78;;
50249;SDS011;36133;42.522;27.456;2023-04-03T05:58:03;7.28;;;4.78;;
50249;SDS011;36133;42.522;27.456;2023-04-03T06:00:28;8.93;;;5.45;;
50249;SDS011;36133;42.522;27.456;2023-04-03T06:02:54;7.72;;;4.30;;
50249;SDS011;36133;42.522;27.456;2023-04-03T06:05:20;12.23;;;4.40;;
50249;SDS011;36133;42.522;27.456;2023-04-03T06:07:48;13.27;;;4.68;;
50249;SDS011;36133;42.522;27.456;2023-04-03T06:10:14;15.30;;;6.13;;
50249;SDS011;36133;42.522;27.456;2023-04-03T06:12:40;15.13;;;8.45;;
50249;SDS011;36133;42.522;27.456;2023-04-03T06:15:06;26.98;;;9.98;;
50249;SDS011;36133;42.522;27.456;2023-04-03T06:17:35;16.90;;;10.18;;
50249;SDS011;36133;42.522;27.456;2023-04-03T06:20:02;19.50;;;9.80;;
50249;SDS011;36133;42.522;27.456;2023-04-03T06:22:28;22.92;;;10.88;;
50249;SDS011;36133;42.522;27.456;2023-04-03T06:24:55;22.02;;;10.77;;
50249;SDS011;36133;42.522;27.456;2023-04-03T06:27:21;32.70;;;11.43;;
50249;SDS011;36133;42.522;27.456;2023-04-03T06:29:49;25.48;;;10.82;;
50249;SDS011;36133;42.522;27.456;2023-04-03T06:32:15;25.65;;;10.20;;
50249;SDS011;36133;42.522;27.456;2023-04-03T06:34:45;18.63;;;9.98;;
50249;SDS011;36133;42.522;27.456;2023-04-03T06:37:19;20.67;;;10.65;;
50249;SDS011;36133;42.522;27.456;2023-04-03T06:43:05;40.85;;;12.05;;
50249;SDS011;36133;42.522;27.456;2023-04-03T06:45:33;26.80;;;10.57;;
50249;SDS011;36133;42.522;27.456;2023-04-03T06:48:01;22.00;;;10.15;;
50249;SDS011;36133;42.522;27.456;2023-04-03T06:50:27;25.23;;;9.90;;
50249;SDS011;36133;42.522;27.456;2023-04-03T06:53:07;18.38;;;9.90;;
50249;SDS011;36133;42.522;27.456;2023-04-03T06:55:42;20.30;;;9.07;;
50249;SDS011;36133;42.522;27.456;2023-04-03T06:58:08;22.02;;;9.15;;
50249;SDS011;36133;42.522;27.456;2023-04-03T07:00:34;17.00;;;9.07;;
50249;SDS011;36133;42.522;27.456;2023-04-03T07:03:02;20.30;;;9.70;;
50249;SDS011;36133;42.522;27.456;2023-04-03T07:05:31;19.17;;;8.45;;
50249;SDS011;36133;42.522;27.456;2023-04-03T07:07:56;15.77;;;8.13;;
50249;SDS011;36133;42.522;27.456;2023-04-03T07:10:22;14.43;;;7.47;;
50249;SDS011;36133;42.522;27.456;2023-04-03T07:12:59;17.10;;;7.57;;
50249;SDS011;36133;42.522;27.456;2023-04-03T07:15:33;21.25;;;9.20;;
50249;SDS011;36133;42.522;27.456;2023-04-03T07:17:58;22.65;;;9.52;;
50249;SDS011;36133;42.522;27.456;2023-04-03T07:20:24;25.25;;;9.27;;
50249;SDS011;36133;42.522;27.456;2023-04-03T07:23:14;19.13;;;9.25;;
50249;SDS011;36133;42.522;27.456;2023-04-03T07:25:47;20.90;;;9.50;;
50249;SDS011;36133;42.522;27.456;2023-04-03T07:28:20;17.77;;;9.77;;
50249;SDS011;36133;42.522;27.456;2023-04-03T07:30:50;17.65;;;10.05;;
50249;SDS011;36133;42.522;27.456;2023-04-03T07:33:19;24.55;;;10.05;;
50249;SDS011;36133;42.522;27.456;2023-04-03T07:35:48;27.80;;;10.10;;
50249;SDS011;36133;42.522;27.456;2023-04-03T07:38:17;24.80;;;11.23;;
50249;SDS011;36133;42.522;27.456;2023-04-03T07:40:48;29.58;;;12.25;;
50249;SDS011;36133;42.522;27.456;2023-04-03T07:43:18;28.77;;;10.85;;
50249;SDS011;36133;42.522;27.456;2023-04-03T07:45:49;28.33;;;14.45;;
50249;SDS011;36133;42.522;27.456;2023-04-03T07:48:20;24.23;;;12.48;;
50249;SDS011;36133;42.522;27.456;2023-04-03T07:51:03;24.50;;;12.93;;
50249;SDS011;36133;42.522;27.456;2023-04-03T07:53:42;28.92;;;12.13;;
50249;SDS011;36133;42.522;27.456;2023-04-03T07:56:08;26.38;;;11.73;;
50249;SDS011;36133;42.522;27.456;2023-04-03T07:58:34;26.70;;;11.88;;
50249;SDS011;36133;42.522;27.456;2023-04-03T08:01:01;25.65;;;10.60;;
50249;SDS011;36133;42.522;27.456;2023-04-03T08:03:29;23.38;;;10.63;;
50249;SDS011;36133;42.522;27.456;2023-04-03T08:06:05;22.25;;;10.18;;
50249;SDS011;36133;42.522;27.456;2023-04-03T08:08:32;27.38;;;11.00;;
50249;SDS011;36133;42.522;27.456;2023-04-03T08:11:01;21.77;;;10.18;;
50249;SDS011;36133;42.522;27.456;2023-04-03T08:13:28;13.13;;;5.60;;
50249;SDS011;36133;42.522;27.456;2023-04-03T08:15:55;8.82;;;4.10;;
50249;SDS011;36133;42.522;27.456;2023-04-03T08:18:25;9.00;;;4.65;;
50249;SDS011;36133;42.522;27.456;2023-04-03T08:20:51;8.68;;;4.68;;
50249;SDS011;36133;42.522;27.456;2023-04-03T08:23:18;6.65;;;4.07;;
50249;SDS011;36133;42.522;27.456;2023-04-03T08:25:48;7.63;;;4.05;;
50249;SDS011;36133;42.522;27.456;2023-04-03T08:28:22;11.00;;;4.50;;
50249;SDS011;36133;42.522;27.456;2023-04-03T08:30:48;9.13;;;4.30;;
50249;SDS011;36133;42.522;27.456;2023-04-03T08:33:14;5.05;;;3.78;;
50249;SDS011;36133;42.522;27.456;2023-04-03T08:35:40;7.07;;;3.70;;
50249;SDS011;36133;42.522;27.456;2023-04-03T08:38:07;7.95;;;3.20;;
50249;SDS011;36133;42.522;27.456;2023-04-03T08:40:34;6.82;;;3.50;;
50249;SDS011;36133;42.522;27.456;2023-04-03T08:46:05;4.60;;;3.15;;
50249;SDS011;36133;42.522;27.456;2023-04-03T08:48:36;9.50;;;4.07;;
50249;SDS011;36133;42.522;27.456;2023-04-03T08:51:24;6.57;;;4.45;;
50249;SDS011;36133;42.522;27.456;2023-04-03T08:53:59;7.05;;;4.05;;
50249;SDS011;36133;42.522;27.456;2023-04-03T08:56:30;7.00;;;4.18;;
50249;SDS011;36133;42.522;27.456;2023-04-03T08:59:10;7.30;;;4.00;;
50249;SDS011;36133;42.522;27.456;2023-04-03T09:01:49;9.52;;;5.07;;
50249;SDS011;36133;42.522;27.456;2023-04-03T09:04:17;12.75;;;4.45;;
50249;SDS011;36133;42.522;27.456;2023-04-03T09:06:52;6.88;;;3.45;;
50249;SDS011;36133;42.522;27.456;2023-04-03T09:09:30;8.05;;;5.18;;
50249;SDS011;36133;42.522;27.456;2023-04-03T09:12:06;4.50;;;3.40;;
50249;SDS011;36133;42.522;27.456;2023-04-03T09:20:19;10.23;;;4.40;;
50249;SDS011;36133;42.522;27.456;2023-04-03T09:22:46;6.18;;;3.40;;
50249;SDS011;36133;42.522;27.456;2023-04-03T09:25:23;8.30;;;3.95;;
50249;SDS011;36133;42.522;27.456;2023-04-03T09:27:55;6.32;;;3.70;;
50249;SDS011;36133;42.522;27.456;2023-04-03T09:30:31;7.53;;;4.00;;
50249;SDS011;36133;42.522;27.456;2023-04-03T09:33:04;8.43;;;3.90;;
50249;SDS011;36133;42.522;27.456;2023-04-03T09:35:35;8.60;;;4.25;;
50249;SDS011;36133;42.522;27.456;2023-04-03T09:40:35;9.05;;;3.38;;
50249;SDS011;36133;42.522;27.456;2023-04-03T09:45:41;6.35;;;2.70;;
50249;SDS011;36133;42.522;27.456;2023-04-03T09:53:39;5.68;;;2.53;;
50249;SDS011;36133;42.522;27.456;2023-04-03T09:56:22;4.20;;;2.08;;
50249;SDS011;36133;42.522;27.456;2023-04-03T10:04:17;4.60;;;2.80;;
50249;SDS011;36133;42.522;27.456;2023-04-03T10:06:48;4.80;;;1.83;;
50249;SDS011;36133;42.522;27.456;2023-04-03T10:09:23;4.68;;;1.95;;
50249;SDS011;36133;42.522;27.456;2023-04-03T10:14:24;3.08;;;1.95;;
50249;SDS011;36133;42.522;27.456;2023-04-03T10:33:56;3.33;;;1.83;;
50249;SDS011;36133;42.522;27.456;2023-04-03T10:36:37;4.80;;;2.30;;
50249;SDS011;36133;42.522;27.456;2023-04-03T10:45:21;7.07;;;2.17;;
50249;SDS011;36133;42.522;27.456;2023-04-03T10:53:52;5.82;;;2.63;;
50249;SDS011;36133;42.522;27.456;2023-04-03T10:56:37;5.85;;;3.45;;
50249;SDS011;36133;42.522;27.456;2023-04-03T10:59:30;6.65;;;3.35;;
50249;SDS011;36133;42.522;27.456;2023-04-03T11:02:05;8.40;;;3.70;;
50249;SDS011;36133;42.522;27.456;2023-04-03T11:04:34;6.65;;;4.07;;
50249;SDS011;36133;42.522;27.456;2023-04-03T11:09:44;9.27;;;4.07;;
50249;SDS011;36133;42.522;27.456;2023-04-03T11:12:19;10.52;;;4.50;;
50249;SDS011;36133;42.522;27.456;2023-04-03T11:14:51;8.27;;;4.20;;
50249;SDS011;36133;42.522;27.456;2023-04-03T11:22:50;8.05;;;5.35;;
50249;SDS011;36133;42.522;27.456;2023-04-03T11:25:24;10.27;;;5.10;;
50249;SDS011;36133;42.522;27.456;2023-04-03T11:27:58;8.23;;;5.28;;
50249;SDS011;36133;42.522;27.456;2023-04-03T11:36:29;10.60;;;5.20;;
50249;SDS011;36133;42.522;27.456;2023-04-03T11:38:59;7.72;;;5.13;;
50249;SDS011;36133;42.522;27.456;2023-04-03T11:41:32;8.27;;;5.75;;
50249;SDS011;36133;42.522;27.456;2023-04-03T11:47:09;10.15;;;5.63;;
50249;SDS011;36133;42.522;27.456;2023-04-03T11:52:59;8.90;;;5.68;;
50249;SDS011;36133;42.522;27.456;2023-04-03T12:05:50;12.35;;;6.57;;
50249;SDS011;36133;42.522;27.456;2023-04-03T12:11:22;9.32;;;6.05;;
50249;SDS011;36133;42.522;27.456;2023-04-03T12:16:23;13.50;;;7.03;;
50249;SDS011;36133;42.522;27.456;2023-04-03T12:24:25;12.45;;;6.32;;
50249;SDS011;36133;42.522;27.456;2023-04-03T12:38:33;10.82;;;6.75;;
50249;SDS011;36133;42.522;27.456;2023-04-03T12:41:21;10.68;;;6.40;;
50249;SDS011;36133;42.522;27.456;2023-04-03T12:44:23;9.38;;;6.88;;
50249;SDS011;36133;42.522;27.456;2023-04-03T12:46:59;11.55;;;7.75;;
50249;SDS011;36133;42.522;27.456;2023-04-03T12:49:33;10.70;;;7.47;;
50249;SDS011;36133;42.522;27.456;2023-04-03T12:54:53;11.70;;;8.18;;
50249;SDS011;36133;42.522;27.456;2023-04-03T12:57:21;15.85;;;8.05;;
50249;SDS011;36133;42.522;27.456;2023-04-03T12:59:50;12.95;;;8.52;;
50249;SDS011;36133;42.522;27.456;2023-04-03T13:02:24;11.60;;;8.68;;
50249;SDS011;36133;42.522;27.456;2023-04-03T13:04:52;16.20;;;8.90;;
50249;SDS011;36133;42.522;27.456;2023-04-03T13:07:44;15.73;;;10.45;;
50249;SDS011;36133;42.522;27.456;2023-04-03T13:10:30;23.80;;;12.07;;
50249;SDS011;36133;42.522;27.456;2023-04-03T13:13:14;23.00;;;13.20;;
50249;SDS011;36133;42.522;27.456;2023-04-03T13:15:48;25.25;;;14.38;;
50249;SDS011;36133;42.522;27.456;2023-04-03T13:18:26;28.75;;;13.30;;
50249;SDS011;36133;42.522;27.456;2023-04-03T13:20:52;22.08;;;12.52;;
50249;SDS011;36133;42.522;27.456;2023-04-03T13:23:38;18.92;;;11.90;;
50249;SDS011;36133;42.522;27.456;2023-04-03T13:26:17;19.38;;;12.52;;
50249;SDS011;36133;42.522;27.456;2023-04-03T13:28:48;18.80;;;11.95;;
50249;SDS011;36133;42.522;27.456;2023-04-03T13:34:21;24.65;;;13.18;;
50249;SDS011;36133;42.522;27.456;2023-04-03T13:36:58;22.20;;;13.18;;
50249;SDS011;36133;42.522;27.456;2023-04-03T13:39:41;21.02;;;13.15;;
50249;SDS011;36133;42.522;27.456;2023-04-03T13:42:20;19.58;;;12.90;;
50249;SDS011;36133;42.522;27.456;2023-04-03T13:50:52;23.13;;;14.70;;
50249;SDS011;36133;42.522;27.456;2023-04-03T13:53:41;25.15;;;15.63;;
50249;SDS011;36133;42.522;27.456;2023-04-03T14:02:12;26.63;;;16.92;;
50249;SDS011;36133;42.522;27.456;2023-04-03T14:04:51;32.13;;;17.50;;
50249;SDS011;36133;42.522;27.456;2023-04-03T14:07:25;29.27;;;16.52;;
50249;SDS011;36133;42.522;27.456;2023-04-03T14:10:15;30.92;;;17.50;;
50249;SDS011;36133;42.522;27.456;2023-04-03T14:12:41;27.90;;;16.75;;
50249;SDS011;36133;42.522;27.456;2023-04-03T14:15:23;27.30;;;16.73;;
50249;SDS011;36133;42.522;27.456;2023-04-03T14:18:13;27.27;;;17.33;;
50249;SDS011;36133;42.522;27.456;2023-04-03T14:20:42;31.45;;;18.67;;
50249;SDS011;36133;42.522;27.456;2023-04-03T14:23:20;32.92;;;18.63;;
50249;SDS011;36133;42.522;27.456;2023-04-03T14:25:46;28.08;;;18.02;;
50249;SDS011;36133;42.522;27.456;2023-04-03T14:28:14;29.58;;;18.20;;
50249;SDS011;36133;42.522;27.456;2023-04-03T14:30:47;28.10;;;18.00;;
50249;SDS011;36133;42.522;27.456;2023-04-03T14:33:18;30.85;;;18.58;;
50249;SDS011;36133;42.522;27.456;2023-04-03T14:35:58;25.77;;;17.33;;
50249;SDS011;36133;42.522;27.456;2023-04-03T14:38:49;30.95;;;17.20;;
50249;SDS011;36133;42.522;27.456;2023-04-03T14:41:23;26.42;;;16.10;;
50249;SDS011;36133;42.522;27.456;2023-04-03T14:44:47;22.23;;;14.43;;
50249;SDS011;36133;42.522;27.456;2023-04-03T14:47:25;24.23;;;14.55;;
50249;SDS011;36133;42.522;27.456;2023-04-03T14:50:00;23.15;;;14.90;;
50249;SDS011;36133;42.522;27.456;2023-04-03T14:52:34;26.08;;;14.35;;
50249;SDS011;36133;42.522;27.456;2023-04-03T14:55:20;17.50;;;13.00;;
50249;SDS011;36133;42.522;27.456;2023-04-03T15:01:17;24.35;;;14.65;;
50249;SDS011;36133;42.522;27.456;2023-04-03T15:03:49;21.70;;;13.38;;
50249;SDS011;36133;42.522;27.456;2023-04-03T15:06:18;22.70;;;12.55;;
50249;SDS011;36133;42.522;27.456;2023-04-03T15:08:57;22.45;;;13.00;;
50249;SDS011;36133;42.522;27.456;2023-04-03T15:11:54;23.38;;;13.80;;
50249;SDS011;36133;42.522;27.456;2023-04-03T15:14:47;18.70;;;12.52;;
50249;SDS011;36133;42.522;27.456;2023-04-03T15:19:52;24.98;;;13.20;;
50249;SDS011;36133;42.522;27.456;2023-04-03T15:22:25;24.35;;;13.10;;
50249;SDS011;36133;42.522;27.456;2023-04-03T15:24:52;20.80;;;12.73;;
50249;SDS011;36133;42.522;27.456;2023-04-03T15:27:37;20.63;;;12.95;;
50249;SDS011;36133;42.522;27.456;2023-04-03T15:30:10;21.45;;;12.68;;
50249;SDS011;36133;42.522;27.456;2023-04-03T15:32:49;20.23;;;13.05;;
50249;SDS011;36133;42.522;27.456;2023-04-03T15:35:15;20.88;;;12.75;;
50249;SDS011;36133;42.522;27.456;2023-04-03T15:37:47;18.58;;;12.38;;
50249;SDS011;36133;42.522;27.456;2023-04-03T15:40:19;19.42;;;12.82;;
50249;SDS011;36133;42.522;27.456;2023-04-03T15:46:06;17.40;;;11.85;;
50249;SDS011;36133;42.522;27.456;2023-04-03T15:48:35;20.73;;;11.70;;
50249;SDS011;36133;42.522;27.456;2023-04-03T15:51:16;15.23;;;10.93;;
50249;SDS011;36133;42.522;27.456;2023-04-03T15:53:49;18.48;;;11.65;;
50249;SDS011;36133;42.522;27.456;2023-04-03T15:56:17;16.48;;;11.00;;
50249;SDS011;36133;42.522;27.456;2023-04-03T15:58:45;14.98;;;11.27;;
50249;SDS011;36133;42.522;27.456;2023-04-03T16:01:14;17.52;;;10.60;;
50249;SDS011;36133;42.522;27.456;2023-04-03T16:03:56;16.73;;;11.18;;
50249;SDS011;36133;42.522;27.456;2023-04-03T16:06:24;17.02;;;10.38;;
50249;SDS011;36133;42.522;27.456;2023-04-03T16:08:54;14.82;;;10.63;;
50249;SDS011;36133;42.522;27.456;2023-04-03T16:11:25;16.05;;;9.95;;
50249;SDS011;36133;42.522;27.456;2023-04-03T16:14:10;17.77;;;10.15;;
50249;SDS011;36133;42.522;27.456;2023-04-03T16:16:38;17.55;;;10.13;;
50249;SDS011;36133;42.522;27.456;2023-04-03T16:19:13;13.45;;;9.82;;
50249;SDS011;36133;42.522;27.456;2023-04-03T16:21:45;18.13;;;10.32;;
50249;SDS011;36133;42.522;27.456;2023-04-03T16:24:16;16.52;;;9.98;;
50249;SDS011;36133;42.522;27.456;2023-04-03T16:26:44;19.02;;;10.20;;
50249;SDS011;36133;42.522;27.456;2023-04-03T16:29:12;15.88;;;10.70;;
50249;SDS011;36133;42.522;27.456;2023-04-03T16:31:41;18.40;;;10.05;;
50249;SDS011;36133;42.522;27.456;2023-04-03T16:34:20;13.43;;;9.68;;
50249;SDS011;36133;42.522;27.456;2023-04-03T16:36:58;15.88;;;11.23;;
50249;SDS011;36133;42.522;27.456;2023-04-03T16:39:27;14.85;;;10.35;;
50249;SDS011;36133;42.522;27.456;2023-04-03T16:42:04;17.25;;;11.25;;
50249;SDS011;36133;42.522;27.456;2023-04-03T16:44:36;16.27;;;10.32;;
50249;SDS011;36133;42.522;27.456;2023-04-03T16:47:05;18.38;;;11.07;;
50249;SDS011;36133;42.522;27.456;2023-04-03T16:49:35;21.67;;;12.35;;
50249;SDS011;36133;42.522;27.456;2023-04-03T16:52:04;18.40;;;11.25;;
50249;SDS011;36133;42.522;27.456;2023-04-03T16:54:30;16.10;;;12.05;;
50249;SDS011;36133;42.522;27.456;2023-04-03T16:56:58;18.10;;;12.15;;
50249;SDS011;36133;42.522;27.456;2023-04-03T16:59:24;19.73;;;12.02;;
50249;SDS011;36133;42.522;27.456;2023-04-03T17:01:50;20.25;;;12.68;;